VJT402 EBBR-EGLL
Flight info
| Callsign | VJT402 |
|---|---|
| Flight time | 0h 46m |
| Altitude | 24000 |
| Route | HELEN L179 COA L608 LOGAN |
| Aircraft | CL60/M-ICAO/HB1D1 |
Departure
| Time | 2026-05-04 20:38 |
|---|---|
| Airport | Brussels Airport (EBBR) |
Arrival
| Time | 2026-05-04 21:25 |
|---|---|
| Airport | London Heathrow Airport (EGLL) |
| Time | Latitude | Longitude | Altitude | Speed | Heading |
|---|---|---|---|---|---|
| 2026-05-04 20:19 | 50.89951 | 4.46967 | 118 ft | 0 kts | 156° |
| 2026-05-04 20:33 | 50.89977 | 4.46981 | 117 ft | 16 kts | 340° |
| 2026-05-04 20:33 | 50.90049 | 4.46980 | 115 ft | 10 kts | 67° |
| 2026-05-04 20:33 | 50.90091 | 4.47129 | 114 ft | 17 kts | 69° |
| 2026-05-04 20:34 | 50.90135 | 4.47318 | 114 ft | 20 kts | 64° |
| 2026-05-04 20:34 | 50.90205 | 4.47536 | 113 ft | 23 kts | 63° |
| 2026-05-04 20:34 | 50.90273 | 4.47783 | 114 ft | 25 kts | 66° |
| 2026-05-04 20:34 | 50.90352 | 4.48053 | 113 ft | 28 kts | 65° |
| 2026-05-04 20:35 | 50.90435 | 4.48340 | 115 ft | 29 kts | 67° |
| 2026-05-04 20:35 | 50.90511 | 4.48608 | 115 ft | 18 kts | 65° |
| 2026-05-04 20:35 | 50.90569 | 4.48802 | 116 ft | 20 kts | 65° |
| 2026-05-04 20:35 | 50.90633 | 4.49010 | 118 ft | 22 kts | 64° |
| 2026-05-04 20:36 | 50.90698 | 4.49249 | 120 ft | 24 kts | 70° |
| 2026-05-04 20:36 | 50.90772 | 4.49508 | 116 ft | 28 kts | 65° |
| 2026-05-04 20:36 | 50.90845 | 4.49739 | 112 ft | 15 kts | 43° |
| 2026-05-04 20:36 | 50.90935 | 4.49796 | 109 ft | 22 kts | 43° |
| 2026-05-04 20:37 | 50.91087 | 4.49936 | 104 ft | 27 kts | 19° |
| 2026-05-04 20:37 | 50.91139 | 4.49881 | 103 ft | 9 kts | 246° |
| 2026-05-04 20:37 | 50.91138 | 4.49878 | 103 ft | 0 kts | 246° |
| 2026-05-04 20:38 | 50.91112 | 4.49790 | 104 ft | 33 kts | 246° |
| 2026-05-04 20:38 | 50.90848 | 4.48879 | 107 ft | 141 kts | 245° |
| 2026-05-04 20:38 | 50.90385 | 4.47267 | 607 ft | 181 kts | 246° |
| 2026-05-04 20:38 | 50.90288 | 4.45285 | 1541 ft | 195 kts | 295° |
| 2026-05-04 20:39 | 50.91025 | 4.43529 | 2697 ft | 197 kts | 309° |
| 2026-05-04 20:39 | 50.91768 | 4.41780 | 3973 ft | 199 kts | 307° |
| 2026-05-04 20:39 | 50.92517 | 4.39983 | 5211 ft | 206 kts | 307° |
| 2026-05-04 20:39 | 50.93292 | 4.38136 | 6610 ft | 207 kts | 307° |
| 2026-05-04 20:40 | 50.94078 | 4.36277 | 7922 ft | 209 kts | 307° |
| 2026-05-04 20:40 | 50.94870 | 4.34420 | 9164 ft | 213 kts | 307° |
| 2026-05-04 20:40 | 50.95692 | 4.32509 | 10380 ft | 217 kts | 307° |
| 2026-05-04 20:40 | 50.96535 | 4.30566 | 11553 ft | 221 kts | 307° |
| 2026-05-04 20:41 | 50.97428 | 4.28602 | 12669 ft | 225 kts | 311° |
| 2026-05-04 20:41 | 50.98488 | 4.26799 | 13761 ft | 228 kts | 317° |
| 2026-05-04 20:41 | 50.99597 | 4.25057 | 14797 ft | 233 kts | 317° |
| 2026-05-04 20:41 | 51.00744 | 4.23248 | 15812 ft | 238 kts | 316° |
| 2026-05-04 20:42 | 51.01911 | 4.21404 | 16765 ft | 243 kts | 316° |
| 2026-05-04 20:42 | 51.03111 | 4.19508 | 17669 ft | 249 kts | 316° |
| 2026-05-04 20:42 | 51.04333 | 4.17574 | 18562 ft | 253 kts | 315° |
| 2026-05-04 20:42 | 51.05330 | 4.15996 | 19314 ft | 255 kts | 315° |
| 2026-05-04 20:43 | 51.07391 | 4.12731 | 20796 ft | 258 kts | 315° |
| 2026-05-04 20:43 | 51.08650 | 4.10732 | 21624 ft | 262 kts | 315° |
| 2026-05-04 20:44 | 51.09938 | 4.08686 | 22463 ft | 264 kts | 314° |
| 2026-05-04 20:44 | 51.11259 | 4.06584 | 23260 ft | 268 kts | 314° |
| 2026-05-04 20:44 | 51.12583 | 4.04475 | 23826 ft | 278 kts | 313° |
| 2026-05-04 20:44 | 51.13972 | 4.02260 | 23964 ft | 282 kts | 314° |
| 2026-05-04 20:45 | 51.15388 | 4.00000 | 23963 ft | 298 kts | 314° |
| 2026-05-04 20:45 | 51.16896 | 3.97593 | 23956 ft | 312 kts | 314° |
| 2026-05-04 20:45 | 51.18442 | 3.95123 | 23967 ft | 314 kts | 314° |
| 2026-05-04 20:45 | 51.19981 | 3.92662 | 23945 ft | 315 kts | 314° |
| 2026-05-04 20:46 | 51.21523 | 3.90194 | 23967 ft | 314 kts | 314° |
| 2026-05-04 20:46 | 51.23032 | 3.87686 | 23955 ft | 313 kts | 307° |
| 2026-05-04 20:46 | 51.24067 | 3.84658 | 23962 ft | 310 kts | 289° |
| 2026-05-04 20:46 | 51.24786 | 3.81381 | 23957 ft | 310 kts | 289° |
| 2026-05-04 20:47 | 51.25498 | 3.78153 | 23961 ft | 311 kts | 289° |
| 2026-05-04 20:47 | 51.26231 | 3.74831 | 23956 ft | 311 kts | 289° |
| 2026-05-04 20:47 | 51.26944 | 3.71590 | 23958 ft | 311 kts | 289° |
| 2026-05-04 20:47 | 51.27668 | 3.68303 | 23954 ft | 310 kts | 289° |
| 2026-05-04 20:48 | 51.28383 | 3.65047 | 23964 ft | 310 kts | 289° |
| 2026-05-04 20:48 | 51.29097 | 3.61789 | 23959 ft | 310 kts | 289° |
| 2026-05-04 20:48 | 51.29814 | 3.58514 | 23964 ft | 313 kts | 289° |
| 2026-05-04 20:48 | 51.30553 | 3.55132 | 23971 ft | 326 kts | 289° |
| 2026-05-04 20:49 | 51.31318 | 3.51628 | 23967 ft | 336 kts | 289° |
| 2026-05-04 20:49 | 51.32087 | 3.48101 | 23964 ft | 337 kts | 288° |
| 2026-05-04 20:49 | 51.32858 | 3.44555 | 23981 ft | 337 kts | 288° |
| 2026-05-04 20:49 | 51.33628 | 3.41008 | 23974 ft | 337 kts | 289° |
| 2026-05-04 20:50 | 51.34409 | 3.37409 | 23983 ft | 337 kts | 289° |
| 2026-05-04 20:50 | 51.35229 | 3.33830 | 23986 ft | 337 kts | 290° |
| 2026-05-04 20:50 | 51.36056 | 3.30356 | 24003 ft | 337 kts | 290° |
| 2026-05-04 20:50 | 51.36895 | 3.26823 | 23988 ft | 337 kts | 290° |
| 2026-05-04 20:51 | 51.37734 | 3.23284 | 24028 ft | 336 kts | 290° |
| 2026-05-04 20:51 | 51.38559 | 3.19800 | 24008 ft | 336 kts | 290° |
| 2026-05-04 20:51 | 51.39384 | 3.16309 | 24013 ft | 336 kts | 290° |
| 2026-05-04 20:51 | 51.40223 | 3.12755 | 23990 ft | 336 kts | 290° |
| 2026-05-04 20:52 | 51.41055 | 3.09223 | 23999 ft | 336 kts | 290° |
| 2026-05-04 20:52 | 51.41886 | 3.05695 | 24027 ft | 336 kts | 290° |
| 2026-05-04 20:52 | 51.42718 | 3.02155 | 24023 ft | 336 kts | 290° |
| 2026-05-04 20:52 | 51.43554 | 2.98592 | 23996 ft | 335 kts | 290° |
| 2026-05-04 20:53 | 51.44384 | 2.95052 | 23999 ft | 335 kts | 290° |
| 2026-05-04 20:53 | 51.45219 | 2.91480 | 24022 ft | 336 kts | 290° |
| 2026-05-04 20:53 | 51.46040 | 2.87965 | 24005 ft | 335 kts | 290° |
| 2026-05-04 20:53 | 51.46876 | 2.84382 | 24007 ft | 335 kts | 290° |
| 2026-05-04 20:54 | 51.47702 | 2.80834 | 24021 ft | 343 kts | 290° |
| 2026-05-04 20:54 | 51.48568 | 2.77103 | 24023 ft | 368 kts | 290° |
| 2026-05-04 20:54 | 51.49512 | 2.73030 | 24004 ft | 393 kts | 290° |
| 2026-05-04 20:54 | 51.50499 | 2.68765 | 24021 ft | 412 kts | 290° |
| 2026-05-04 20:55 | 51.51514 | 2.64373 | 24007 ft | 420 kts | 290° |
| 2026-05-04 20:55 | 51.52538 | 2.59931 | 24003 ft | 419 kts | 290° |
| 2026-05-04 20:55 | 51.53548 | 2.55551 | 24000 ft | 417 kts | 290° |
| 2026-05-04 20:55 | 51.54570 | 2.51104 | 23995 ft | 415 kts | 290° |
| 2026-05-04 20:56 | 51.55568 | 2.46750 | 23997 ft | 414 kts | 290° |
| 2026-05-04 20:56 | 51.56582 | 2.42320 | 23997 ft | 415 kts | 290° |
| 2026-05-04 20:56 | 51.57572 | 2.37986 | 24016 ft | 415 kts | 290° |
| 2026-05-04 20:56 | 51.58581 | 2.33560 | 23999 ft | 416 kts | 289° |
| 2026-05-04 20:57 | 51.59570 | 2.29212 | 24005 ft | 415 kts | 289° |
| 2026-05-04 20:57 | 51.60566 | 2.24827 | 24003 ft | 415 kts | 289° |
| 2026-05-04 20:57 | 51.61558 | 2.20449 | 24011 ft | 415 kts | 289° |
| 2026-05-04 20:57 | 51.62560 | 2.16020 | 24010 ft | 416 kts | 289° |
| 2026-05-04 20:58 | 51.63560 | 2.11583 | 24022 ft | 428 kts | 289° |
| 2026-05-04 20:58 | 51.64603 | 2.06948 | 24020 ft | 439 kts | 289° |
| 2026-05-04 20:58 | 51.65649 | 2.02285 | 24015 ft | 443 kts | 289° |
| 2026-05-04 20:58 | 51.66697 | 1.97607 | 24017 ft | 442 kts | 289° |
| 2026-05-04 20:59 | 51.67753 | 1.92884 | 24011 ft | 441 kts | 289° |
| 2026-05-04 20:59 | 51.68784 | 1.88264 | 24022 ft | 440 kts | 289° |
| 2026-05-04 20:59 | 51.69822 | 1.83596 | 24021 ft | 440 kts | 289° |
| 2026-05-04 20:59 | 51.70862 | 1.78913 | 24017 ft | 440 kts | 289° |
| 2026-05-04 21:00 | 51.71881 | 1.74309 | 24018 ft | 440 kts | 289° |
| 2026-05-04 21:00 | 51.72910 | 1.69655 | 24012 ft | 440 kts | 288° |
| 2026-05-04 21:00 | 51.73930 | 1.64990 | 24025 ft | 440 kts | 287° |
| 2026-05-04 21:00 | 51.74540 | 1.60173 | 23936 ft | 430 kts | 274° |
| 2026-05-04 21:01 | 51.74422 | 1.55297 | 23332 ft | 427 kts | 264° |
| 2026-05-04 21:01 | 51.74106 | 1.50490 | 22614 ft | 428 kts | 264° |
| 2026-05-04 21:01 | 51.73797 | 1.45724 | 21923 ft | 429 kts | 263° |
| 2026-05-04 21:01 | 51.73484 | 1.40921 | 21362 ft | 427 kts | 264° |
| 2026-05-04 21:02 | 51.73172 | 1.36168 | 20871 ft | 424 kts | 264° |
| 2026-05-04 21:02 | 51.72859 | 1.31414 | 20285 ft | 425 kts | 263° |
| 2026-05-04 21:02 | 51.72548 | 1.26720 | 19808 ft | 422 kts | 263° |
| 2026-05-04 21:02 | 51.72232 | 1.21985 | 19366 ft | 420 kts | 263° |
| 2026-05-04 21:03 | 51.71917 | 1.17271 | 18847 ft | 418 kts | 263° |
| 2026-05-04 21:03 | 51.71606 | 1.12663 | 18412 ft | 417 kts | 263° |
| 2026-05-04 21:03 | 51.71288 | 1.07966 | 18026 ft | 415 kts | 263° |
| 2026-05-04 21:03 | 51.70974 | 1.03362 | 17662 ft | 410 kts | 263° |
| 2026-05-04 21:04 | 51.70660 | 0.98772 | 17340 ft | 407 kts | 263° |
| 2026-05-04 21:04 | 51.70348 | 0.94249 | 17002 ft | 404 kts | 263° |
| 2026-05-04 21:04 | 51.70042 | 0.89820 | 16325 ft | 391 kts | 263° |
| 2026-05-04 21:04 | 51.69744 | 0.85526 | 15583 ft | 372 kts | 263° |
| 2026-05-04 21:05 | 51.69464 | 0.81519 | 14929 ft | 356 kts | 264° |
| 2026-05-04 21:05 | 51.69189 | 0.77616 | 14233 ft | 345 kts | 264° |
| 2026-05-04 21:05 | 51.68919 | 0.73799 | 13652 ft | 331 kts | 264° |
| 2026-05-04 21:05 | 51.68665 | 0.70235 | 13243 ft | 315 kts | 264° |
| 2026-05-04 21:06 | 51.68419 | 0.66791 | 12847 ft | 301 kts | 264° |
| 2026-05-04 21:06 | 51.68185 | 0.63527 | 12473 ft | 289 kts | 264° |
| 2026-05-04 21:06 | 51.67960 | 0.60390 | 12142 ft | 278 kts | 264° |
| 2026-05-04 21:06 | 51.67736 | 0.57285 | 11751 ft | 270 kts | 264° |
| 2026-05-04 21:07 | 51.67523 | 0.54343 | 11463 ft | 258 kts | 264° |
| 2026-05-04 21:07 | 51.67318 | 0.51522 | 11132 ft | 254 kts | 264° |
| 2026-05-04 21:07 | 51.67111 | 0.48682 | 10817 ft | 254 kts | 264° |
| 2026-05-04 21:07 | 51.66906 | 0.45873 | 10494 ft | 254 kts | 264° |
| 2026-05-04 21:08 | 51.66698 | 0.43042 | 10170 ft | 252 kts | 264° |
| 2026-05-04 21:08 | 51.66494 | 0.40262 | 9864 ft | 251 kts | 264° |
| 2026-05-04 21:08 | 51.66285 | 0.37441 | 9518 ft | 250 kts | 264° |
| 2026-05-04 21:08 | 51.66081 | 0.34675 | 9221 ft | 249 kts | 264° |
| 2026-05-04 21:09 | 51.65876 | 0.31913 | 8930 ft | 250 kts | 264° |
| 2026-05-04 21:09 | 51.65672 | 0.29189 | 8596 ft | 247 kts | 264° |
| 2026-05-04 21:09 | 51.65465 | 0.26421 | 8314 ft | 248 kts | 264° |
| 2026-05-04 21:09 | 51.65260 | 0.23680 | 7992 ft | 247 kts | 264° |
| 2026-05-04 21:10 | 51.65052 | 0.20920 | 7681 ft | 244 kts | 264° |
| 2026-05-04 21:10 | 51.64850 | 0.18242 | 7386 ft | 243 kts | 264° |
| 2026-05-04 21:10 | 51.64651 | 0.15538 | 7098 ft | 241 kts | 265° |
| 2026-05-04 21:10 | 51.64498 | 0.12861 | 7042 ft | 242 kts | 266° |
| 2026-05-04 21:11 | 51.64350 | 0.10147 | 7046 ft | 244 kts | 266° |
| 2026-05-04 21:11 | 51.64202 | 0.07474 | 7048 ft | 245 kts | 266° |
| 2026-05-04 21:11 | 51.64051 | 0.04754 | 7032 ft | 237 kts | 266° |
| 2026-05-04 21:11 | 51.63905 | 0.02151 | 6584 ft | 237 kts | 266° |
| 2026-05-04 21:12 | 51.63759 | -0.00458 | 6154 ft | 234 kts | 266° |
| 2026-05-04 21:12 | 51.63614 | -0.03042 | 6013 ft | 238 kts | 266° |
| 2026-05-04 21:12 | 51.63466 | -0.05678 | 5998 ft | 239 kts | 266° |
| 2026-05-04 21:12 | 51.63313 | -0.08385 | 5995 ft | 241 kts | 266° |
| 2026-05-04 21:13 | 51.63163 | -0.11033 | 5995 ft | 241 kts | 266° |
| 2026-05-04 21:13 | 51.63010 | -0.13710 | 6003 ft | 241 kts | 266° |
| 2026-05-04 21:13 | 51.62861 | -0.16322 | 6002 ft | 241 kts | 266° |
| 2026-05-04 21:13 | 51.62708 | -0.18985 | 6001 ft | 242 kts | 266° |
| 2026-05-04 21:14 | 51.62553 | -0.21671 | 5992 ft | 242 kts | 266° |
| 2026-05-04 21:14 | 51.62396 | -0.24392 | 5977 ft | 244 kts | 266° |
| 2026-05-04 21:14 | 51.62241 | -0.27050 | 5698 ft | 236 kts | 266° |
| 2026-05-04 21:14 | 51.62088 | -0.29679 | 5162 ft | 237 kts | 266° |
| 2026-05-04 21:15 | 51.61932 | -0.32340 | 4980 ft | 238 kts | 266° |
| 2026-05-04 21:15 | 51.61776 | -0.34985 | 4976 ft | 240 kts | 266° |
| 2026-05-04 21:15 | 51.61617 | -0.37676 | 4980 ft | 241 kts | 266° |
| 2026-05-04 21:15 | 51.61455 | -0.40417 | 4981 ft | 249 kts | 266° |
| 2026-05-04 21:16 | 51.61289 | -0.43213 | 4977 ft | 255 kts | 266° |
| 2026-05-04 21:16 | 51.61121 | -0.46036 | 4981 ft | 258 kts | 266° |
| 2026-05-04 21:16 | 51.60949 | -0.48907 | 4983 ft | 259 kts | 266° |
| 2026-05-04 21:16 | 51.60775 | -0.51792 | 4985 ft | 260 kts | 266° |
| 2026-05-04 21:17 | 51.60598 | -0.54721 | 4985 ft | 261 kts | 266° |
| 2026-05-04 21:17 | 51.60421 | -0.57626 | 4991 ft | 261 kts | 266° |
| 2026-05-04 21:17 | 51.60244 | -0.60534 | 4986 ft | 261 kts | 266° |
| 2026-05-04 21:17 | 51.60066 | -0.63443 | 4987 ft | 261 kts | 266° |
| 2026-05-04 21:18 | 51.59885 | -0.66387 | 4988 ft | 261 kts | 265° |
| 2026-05-04 21:18 | 51.59709 | -0.69225 | 4850 ft | 250 kts | 265° |
| 2026-05-04 21:18 | 51.59483 | -0.72034 | 4183 ft | 255 kts | 255° |
| 2026-05-04 21:18 | 51.58631 | -0.74477 | 3548 ft | 258 kts | 227° |
| 2026-05-04 21:19 | 51.57265 | -0.76293 | 3088 ft | 252 kts | 207° |
| 2026-05-04 21:19 | 51.55592 | -0.77004 | 2977 ft | 238 kts | 178° |
| 2026-05-04 21:19 | 51.54073 | -0.76495 | 2995 ft | 214 kts | 153° |
| 2026-05-04 21:19 | 51.52798 | -0.75313 | 3002 ft | 212 kts | 143° |
| 2026-05-04 21:20 | 51.51582 | -0.73960 | 2993 ft | 213 kts | 142° |
| 2026-05-04 21:20 | 51.50383 | -0.72632 | 2784 ft | 206 kts | 142° |
| 2026-05-04 21:20 | 51.49224 | -0.71350 | 2498 ft | 203 kts | 141° |
| 2026-05-04 21:20 | 51.48017 | -0.70013 | 2454 ft | 207 kts | 142° |
| 2026-05-04 21:21 | 51.46923 | -0.68557 | 2469 ft | 200 kts | 124° |
| 2026-05-04 21:21 | 51.46452 | -0.66666 | 2414 ft | 173 kts | 94° |
| 2026-05-04 21:21 | 51.46415 | -0.64907 | 2110 ft | 143 kts | 86° |
| 2026-05-04 21:21 | 51.46410 | -0.63433 | 1973 ft | 126 kts | 85° |
| 2026-05-04 21:22 | 51.46409 | -0.62045 | 1747 ft | 119 kts | 84° |
| 2026-05-04 21:22 | 51.46414 | -0.60734 | 1612 ft | 117 kts | 84° |
| 2026-05-04 21:22 | 51.46423 | -0.59431 | 1454 ft | 117 kts | 84° |
| 2026-05-04 21:22 | 51.46432 | -0.58139 | 1316 ft | 117 kts | 85° |
| 2026-05-04 21:23 | 51.46440 | -0.56825 | 1150 ft | 117 kts | 85° |
| 2026-05-04 21:23 | 51.46445 | -0.55533 | 1010 ft | 117 kts | 85° |
| 2026-05-04 21:23 | 51.46450 | -0.54239 | 848 ft | 114 kts | 85° |
| 2026-05-04 21:23 | 51.46455 | -0.52890 | 680 ft | 122 kts | 84° |
| 2026-05-04 21:24 | 51.46472 | -0.51552 | 538 ft | 121 kts | 86° |
| 2026-05-04 21:24 | 51.46475 | -0.50183 | 372 ft | 122 kts | 87° |
| 2026-05-04 21:24 | 51.46480 | -0.48838 | 203 ft | 126 kts | 87° |
| 2026-05-04 21:24 | 51.46480 | -0.47543 | 85 ft | 104 kts | 87° |
| 2026-05-04 21:25 | 51.46486 | -0.46581 | 79 ft | 65 kts | 87° |
| 2026-05-04 21:25 | 51.46487 | -0.46040 | 83 ft | 46 kts | 88° |
| 2026-05-04 21:25 | 51.46404 | -0.45689 | 82 ft | 22 kts | 143° |
| 2026-05-04 21:25 | 51.46318 | -0.45594 | 80 ft | 13 kts | 144° |
| 2026-05-04 21:26 | 51.46240 | -0.45542 | 80 ft | 5 kts | 238° |
| 2026-05-04 21:26 | 51.46234 | -0.45637 | 80 ft | 5 kts | 291° |
| 2026-05-04 21:26 | 51.46243 | -0.45676 | 80 ft | 0 kts | 283° |
| 2026-05-04 21:26 | 51.46244 | -0.45679 | 80 ft | 0 kts | 284° |